sensor_id;sensor_type;location;lat;lon;timestamp;temperature;humidity
42365;DHT22;28498;54.400;18.566;2024-02-14T00:00:11;3.90;99.90
42365;DHT22;28498;54.400;18.566;2024-02-14T00:02:43;3.70;99.90
42365;DHT22;28498;54.400;18.566;2024-02-14T00:05:10;3.50;99.90
42365;DHT22;28498;54.400;18.566;2024-02-14T00:07:38;3.40;99.90
42365;DHT22;28498;54.400;18.566;2024-02-14T00:10:07;3.30;99.90
42365;DHT22;28498;54.400;18.566;2024-02-14T00:12:35;3.10;99.90
42365;DHT22;28498;54.400;18.566;2024-02-14T00:15:03;2.90;99.90
42365;DHT22;28498;54.400;18.566;2024-02-14T00:17:30;2.80;99.90
42365;DHT22;28498;54.400;18.566;2024-02-14T00:19:57;2.70;99.90
42365;DHT22;28498;54.400;18.566;2024-02-14T00:22:24;2.60;99.90
42365;DHT22;28498;54.400;18.566;2024-02-14T00:24:51;2.50;99.90
42365;DHT22;28498;54.400;18.566;2024-02-14T00:27:18;2.50;99.90
42365;DHT22;28498;54.400;18.566;2024-02-14T00:29:45;2.50;99.90
42365;DHT22;28498;54.400;18.566;2024-02-14T00:32:13;2.30;99.90
42365;DHT22;28498;54.400;18.566;2024-02-14T00:34:41;2.20;99.90
42365;DHT22;28498;54.400;18.566;2024-02-14T00:37:08;2.30;99.90
42365;DHT22;28498;54.400;18.566;2024-02-14T00:39:35;2.20;99.90
42365;DHT22;28498;54.400;18.566;2024-02-14T00:42:03;2.20;99.90
42365;DHT22;28498;54.400;18.566;2024-02-14T00:44:30;2.10;99.90
42365;DHT22;28498;54.400;18.566;2024-02-14T00:46:58;2.20;99.90
42365;DHT22;28498;54.400;18.566;2024-02-14T00:49:26;2.10;99.90
42365;DHT22;28498;54.400;18.566;2024-02-14T00:51:53;2.10;99.90
42365;DHT22;28498;54.400;18.566;2024-02-14T00:54:21;2.00;99.90
42365;DHT22;28498;54.400;18.566;2024-02-14T00:56:48;2.10;99.90
42365;DHT22;28498;54.400;18.566;2024-02-14T00:59:16;2.20;99.90
42365;DHT22;28498;54.400;18.566;2024-02-14T01:01:43;2.10;99.90
42365;DHT22;28498;54.400;18.566;2024-02-14T01:04:11;2.20;99.90
42365;DHT22;28498;54.400;18.566;2024-02-14T01:06:38;2.10;99.90
42365;DHT22;28498;54.400;18.566;2024-02-14T01:09:05;2.10;99.90
42365;DHT22;28498;54.400;18.566;2024-02-14T01:11:33;2.20;99.90
42365;DHT22;28498;54.400;18.566;2024-02-14T01:14:00;2.10;99.90
42365;DHT22;28498;54.400;18.566;2024-02-14T01:16:28;2.30;99.90
42365;DHT22;28498;54.400;18.566;2024-02-14T01:18:55;2.40;99.90
42365;DHT22;28498;54.400;18.566;2024-02-14T01:21:23;2.50;99.90
42365;DHT22;28498;54.400;18.566;2024-02-14T01:23:51;2.50;99.90
42365;DHT22;28498;54.400;18.566;2024-02-14T01:26:21;2.30;99.90
42365;DHT22;28498;54.400;18.566;2024-02-14T01:28:48;2.30;99.90
42365;DHT22;28498;54.400;18.566;2024-02-14T01:31:15;2.30;99.90
42365;DHT22;28498;54.400;18.566;2024-02-14T01:33:42;2.20;99.90
42365;DHT22;28498;54.400;18.566;2024-02-14T01:36:10;2.30;99.90
42365;DHT22;28498;54.400;18.566;2024-02-14T01:38:37;2.20;99.90
42365;DHT22;28498;54.400;18.566;2024-02-14T01:41:05;2.20;99.90
42365;DHT22;28498;54.400;18.566;2024-02-14T01:43:32;2.20;99.90
42365;DHT22;28498;54.400;18.566;2024-02-14T01:46:05;2.20;99.90
42365;DHT22;28498;54.400;18.566;2024-02-14T01:48:36;2.20;99.90
42365;DHT22;28498;54.400;18.566;2024-02-14T01:51:05;2.10;99.90
42365;DHT22;28498;54.400;18.566;2024-02-14T01:53:37;2.10;99.90
42365;DHT22;28498;54.400;18.566;2024-02-14T01:56:05;2.20;99.90
42365;DHT22;28498;54.400;18.566;2024-02-14T01:58:34;2.20;99.90
42365;DHT22;28498;54.400;18.566;2024-02-14T02:01:01;2.20;99.90
42365;DHT22;28498;54.400;18.566;2024-02-14T02:03:30;2.20;99.90
42365;DHT22;28498;54.400;18.566;2024-02-14T02:06:00;2.20;99.90
42365;DHT22;28498;54.400;18.566;2024-02-14T02:08:27;2.10;99.90
42365;DHT22;28498;54.400;18.566;2024-02-14T02:10:54;2.20;99.90
42365;DHT22;28498;54.400;18.566;2024-02-14T02:13:21;2.30;99.90
42365;DHT22;28498;54.400;18.566;2024-02-14T02:15:48;2.40;99.90
42365;DHT22;28498;54.400;18.566;2024-02-14T02:18:15;2.30;99.90
42365;DHT22;28498;54.400;18.566;2024-02-14T02:20:43;2.20;99.90
42365;DHT22;28498;54.400;18.566;2024-02-14T02:23:13;2.20;99.90
42365;DHT22;28498;54.400;18.566;2024-02-14T02:25:42;2.10;99.90
42365;DHT22;28498;54.400;18.566;2024-02-14T02:28:10;2.20;99.90
42365;DHT22;28498;54.400;18.566;2024-02-14T02:30:37;2.30;99.90
42365;DHT22;28498;54.400;18.566;2024-02-14T02:33:05;2.30;99.90
42365;DHT22;28498;54.400;18.566;2024-02-14T02:35:33;2.30;99.90
42365;DHT22;28498;54.400;18.566;2024-02-14T02:38:01;2.30;99.90
42365;DHT22;28498;54.400;18.566;2024-02-14T02:40:28;2.30;99.90
42365;DHT22;28498;54.400;18.566;2024-02-14T02:42:55;2.40;99.90
42365;DHT22;28498;54.400;18.566;2024-02-14T02:45:25;2.50;99.90
42365;DHT22;28498;54.400;18.566;2024-02-14T02:47:54;2.60;99.90
42365;DHT22;28498;54.400;18.566;2024-02-14T02:50:23;2.60;99.90
42365;DHT22;28498;54.400;18.566;2024-02-14T02:52:50;2.70;99.90
42365;DHT22;28498;54.400;18.566;2024-02-14T02:55:17;2.50;99.90
42365;DHT22;28498;54.400;18.566;2024-02-14T02:57:45;2.50;99.90
42365;DHT22;28498;54.400;18.566;2024-02-14T03:00:13;2.50;99.90
42365;DHT22;28498;54.400;18.566;2024-02-14T03:02:40;2.60;99.90
42365;DHT22;28498;54.400;18.566;2024-02-14T03:05:14;2.60;99.90
42365;DHT22;28498;54.400;18.566;2024-02-14T03:07:50;2.60;99.90
42365;DHT22;28498;54.400;18.566;2024-02-14T03:10:19;2.50;99.90
42365;DHT22;28498;54.400;18.566;2024-02-14T03:12:48;2.50;99.90
42365;DHT22;28498;54.400;18.566;2024-02-14T03:15:16;2.50;99.90
42365;DHT22;28498;54.400;18.566;2024-02-14T03:17:43;2.60;99.90
42365;DHT22;28498;54.400;18.566;2024-02-14T03:20:12;2.70;99.90
42365;DHT22;28498;54.400;18.566;2024-02-14T03:22:44;2.90;99.90
42365;DHT22;28498;54.400;18.566;2024-02-14T03:25:17;3.00;99.90
42365;DHT22;28498;54.400;18.566;2024-02-14T03:27:44;3.10;99.90
42365;DHT22;28498;54.400;18.566;2024-02-14T03:30:16;3.10;99.90
42365;DHT22;28498;54.400;18.566;2024-02-14T03:32:48;3.00;99.90
42365;DHT22;28498;54.400;18.566;2024-02-14T03:35:16;3.10;99.90
42365;DHT22;28498;54.400;18.566;2024-02-14T03:37:46;3.10;99.90
42365;DHT22;28498;54.400;18.566;2024-02-14T03:40:15;3.00;99.90
42365;DHT22;28498;54.400;18.566;2024-02-14T03:42:43;3.00;99.90
42365;DHT22;28498;54.400;18.566;2024-02-14T03:45:11;3.10;99.90
42365;DHT22;28498;54.400;18.566;2024-02-14T03:47:38;3.20;99.90
42365;DHT22;28498;54.400;18.566;2024-02-14T03:50:10;3.30;99.90
42365;DHT22;28498;54.400;18.566;2024-02-14T03:52:37;3.30;99.90
42365;DHT22;28498;54.400;18.566;2024-02-14T03:55:05;3.20;99.90
42365;DHT22;28498;54.400;18.566;2024-02-14T03:57:32;3.40;99.90
42365;DHT22;28498;54.400;18.566;2024-02-14T04:00:02;3.40;99.90
42365;DHT22;28498;54.400;18.566;2024-02-14T04:02:31;3.30;99.90
42365;DHT22;28498;54.400;18.566;2024-02-14T04:04:59;3.40;99.90
42365;DHT22;28498;54.400;18.566;2024-02-14T04:07:26;3.40;99.90
42365;DHT22;28498;54.400;18.566;2024-02-14T04:09:53;3.40;99.90
42365;DHT22;28498;54.400;18.566;2024-02-14T04:12:20;3.50;99.90
42365;DHT22;28498;54.400;18.566;2024-02-14T04:14:48;3.50;99.90
42365;DHT22;28498;54.400;18.566;2024-02-14T04:17:15;3.40;99.90
42365;DHT22;28498;54.400;18.566;2024-02-14T04:19:42;3.40;99.90
42365;DHT22;28498;54.400;18.566;2024-02-14T04:22:10;3.40;99.90
42365;DHT22;28498;54.400;18.566;2024-02-14T04:24:37;3.40;99.90
42365;DHT22;28498;54.400;18.566;2024-02-14T04:27:04;3.40;99.90
42365;DHT22;28498;54.400;18.566;2024-02-14T04:29:32;3.40;99.90
42365;DHT22;28498;54.400;18.566;2024-02-14T04:32:01;3.40;99.90
42365;DHT22;28498;54.400;18.566;2024-02-14T04:34:29;3.40;99.90
42365;DHT22;28498;54.400;18.566;2024-02-14T04:36:57;3.30;99.90
42365;DHT22;28498;54.400;18.566;2024-02-14T04:39:25;3.30;99.90
42365;DHT22;28498;54.400;18.566;2024-02-14T04:41:51;3.30;99.90
42365;DHT22;28498;54.400;18.566;2024-02-14T04:44:28;3.30;99.90
42365;DHT22;28498;54.400;18.566;2024-02-14T04:46:57;3.30;99.90
42365;DHT22;28498;54.400;18.566;2024-02-14T04:49:26;3.30;99.90
42365;DHT22;28498;54.400;18.566;2024-02-14T04:51:54;3.20;99.90
42365;DHT22;28498;54.400;18.566;2024-02-14T04:54:21;3.20;99.90
42365;DHT22;28498;54.400;18.566;2024-02-14T04:56:48;3.20;99.90
42365;DHT22;28498;54.400;18.566;2024-02-14T04:59:21;3.20;99.90
42365;DHT22;28498;54.400;18.566;2024-02-14T05:01:48;3.10;99.90
42365;DHT22;28498;54.400;18.566;2024-02-14T05:04:15;3.20;99.90
42365;DHT22;28498;54.400;18.566;2024-02-14T05:06:43;3.20;99.90
42365;DHT22;28498;54.400;18.566;2024-02-14T05:09:10;3.10;99.90
42365;DHT22;28498;54.400;18.566;2024-02-14T05:11:37;3.10;99.90
42365;DHT22;28498;54.400;18.566;2024-02-14T05:14:04;3.00;99.90
42365;DHT22;28498;54.400;18.566;2024-02-14T05:16:32;3.00;99.90
42365;DHT22;28498;54.400;18.566;2024-02-14T05:18:59;3.00;99.90
42365;DHT22;28498;54.400;18.566;2024-02-14T05:21:28;2.90;99.90
42365;DHT22;28498;54.400;18.566;2024-02-14T05:23:55;2.90;99.90
42365;DHT22;28498;54.400;18.566;2024-02-14T05:26:22;2.90;99.90
42365;DHT22;28498;54.400;18.566;2024-02-14T05:28:49;2.90;99.90
42365;DHT22;28498;54.400;18.566;2024-02-14T05:31:16;2.80;99.90
42365;DHT22;28498;54.400;18.566;2024-02-14T05:33:44;2.80;99.90
42365;DHT22;28498;54.400;18.566;2024-02-14T05:36:11;2.70;99.90
42365;DHT22;28498;54.400;18.566;2024-02-14T05:38:38;2.70;99.90
42365;DHT22;28498;54.400;18.566;2024-02-14T05:41:05;2.70;99.90
42365;DHT22;28498;54.400;18.566;2024-02-14T05:43:34;2.70;99.90
42365;DHT22;28498;54.400;18.566;2024-02-14T05:46:02;2.70;99.90
42365;DHT22;28498;54.400;18.566;2024-02-14T05:48:29;2.70;99.90
42365;DHT22;28498;54.400;18.566;2024-02-14T05:50:56;2.60;99.90
42365;DHT22;28498;54.400;18.566;2024-02-14T05:53:23;2.60;99.90
42365;DHT22;28498;54.400;18.566;2024-02-14T05:55:50;2.60;99.90
42365;DHT22;28498;54.400;18.566;2024-02-14T05:58:18;2.60;99.90
42365;DHT22;28498;54.400;18.566;2024-02-14T06:00:45;2.60;99.90
42365;DHT22;28498;54.400;18.566;2024-02-14T06:03:13;2.50;99.90
42365;DHT22;28498;54.400;18.566;2024-02-14T06:05:40;2.60;99.90
42365;DHT22;28498;54.400;18.566;2024-02-14T06:08:07;2.60;99.90
42365;DHT22;28498;54.400;18.566;2024-02-14T06:10:35;2.60;99.90
42365;DHT22;28498;54.400;18.566;2024-02-14T06:13:02;2.60;99.90
42365;DHT22;28498;54.400;18.566;2024-02-14T06:15:29;2.60;99.90
42365;DHT22;28498;54.400;18.566;2024-02-14T06:17:56;2.60;99.90
42365;DHT22;28498;54.400;18.566;2024-02-14T06:20:24;2.60;99.90
42365;DHT22;28498;54.400;18.566;2024-02-14T06:22:51;2.60;99.90
42365;DHT22;28498;54.400;18.566;2024-02-14T06:25:30;2.60;99.90
42365;DHT22;28498;54.400;18.566;2024-02-14T06:27:57;2.60;99.90
42365;DHT22;28498;54.400;18.566;2024-02-14T06:30:24;2.60;99.90
42365;DHT22;28498;54.400;18.566;2024-02-14T06:32:56;2.60;99.90
42365;DHT22;28498;54.400;18.566;2024-02-14T06:35:29;2.60;99.90
42365;DHT22;28498;54.400;18.566;2024-02-14T06:37:57;2.60;99.90
42365;DHT22;28498;54.400;18.566;2024-02-14T06:40:30;2.70;99.90
42365;DHT22;28498;54.400;18.566;2024-02-14T06:42:58;2.70;99.90
42365;DHT22;28498;54.400;18.566;2024-02-14T06:45:27;2.80;99.90
42365;DHT22;28498;54.400;18.566;2024-02-14T06:47:55;2.80;99.90
42365;DHT22;28498;54.400;18.566;2024-02-14T06:50:22;2.90;99.90
42365;DHT22;28498;54.400;18.566;2024-02-14T06:52:52;3.00;99.90
42365;DHT22;28498;54.400;18.566;2024-02-14T06:55:19;3.10;99.90
42365;DHT22;28498;54.400;18.566;2024-02-14T06:57:46;3.20;99.90
42365;DHT22;28498;54.400;18.566;2024-02-14T07:00:14;3.20;99.90
42365;DHT22;28498;54.400;18.566;2024-02-14T07:02:41;3.30;99.90
42365;DHT22;28498;54.400;18.566;2024-02-14T07:05:10;3.40;99.90
42365;DHT22;28498;54.400;18.566;2024-02-14T07:07:40;3.40;99.90
42365;DHT22;28498;54.400;18.566;2024-02-14T07:10:08;3.50;99.90
42365;DHT22;28498;54.400;18.566;2024-02-14T07:12:35;3.60;99.90
42365;DHT22;28498;54.400;18.566;2024-02-14T07:15:04;3.80;99.90
42365;DHT22;28498;54.400;18.566;2024-02-14T07:17:32;3.80;99.90
42365;DHT22;28498;54.400;18.566;2024-02-14T07:20:00;3.90;99.90
42365;DHT22;28498;54.400;18.566;2024-02-14T07:22:27;3.90;99.90
42365;DHT22;28498;54.400;18.566;2024-02-14T07:24:54;4.00;99.90
42365;DHT22;28498;54.400;18.566;2024-02-14T07:27:21;4.10;99.90
42365;DHT22;28498;54.400;18.566;2024-02-14T07:29:50;4.10;99.90
42365;DHT22;28498;54.400;18.566;2024-02-14T07:32:18;4.20;99.90
42365;DHT22;28498;54.400;18.566;2024-02-14T07:34:45;4.20;99.90
42365;DHT22;28498;54.400;18.566;2024-02-14T07:37:13;4.30;99.90
42365;DHT22;28498;54.400;18.566;2024-02-14T07:39:42;4.40;99.90
42365;DHT22;28498;54.400;18.566;2024-02-14T07:42:09;4.30;99.90
42365;DHT22;28498;54.400;18.566;2024-02-14T07:44:36;4.30;99.90
42365;DHT22;28498;54.400;18.566;2024-02-14T07:47:03;4.40;99.90
42365;DHT22;28498;54.400;18.566;2024-02-14T07:49:33;4.30;99.90
42365;DHT22;28498;54.400;18.566;2024-02-14T07:52:00;4.30;99.90
42365;DHT22;28498;54.400;18.566;2024-02-14T07:54:27;4.40;99.90
42365;DHT22;28498;54.400;18.566;2024-02-14T07:56:54;4.40;99.90
42365;DHT22;28498;54.400;18.566;2024-02-14T07:59:21;4.40;99.90
42365;DHT22;28498;54.400;18.566;2024-02-14T08:01:48;4.60;99.90
42365;DHT22;28498;54.400;18.566;2024-02-14T08:04:15;4.70;99.90
42365;DHT22;28498;54.400;18.566;2024-02-14T08:06:46;4.70;99.90
42365;DHT22;28498;54.400;18.566;2024-02-14T08:09:13;4.80;99.90
42365;DHT22;28498;54.400;18.566;2024-02-14T08:11:40;5.00;99.90
42365;DHT22;28498;54.400;18.566;2024-02-14T08:14:08;5.20;99.90
42365;DHT22;28498;54.400;18.566;2024-02-14T08:16:36;5.30;99.90
42365;DHT22;28498;54.400;18.566;2024-02-14T08:19:03;5.40;99.90
42365;DHT22;28498;54.400;18.566;2024-02-14T08:21:33;5.50;99.90
42365;DHT22;28498;54.400;18.566;2024-02-14T08:24:01;5.60;99.90
42365;DHT22;28498;54.400;18.566;2024-02-14T08:26:28;5.60;99.90
42365;DHT22;28498;54.400;18.566;2024-02-14T08:28:56;5.80;99.90
42365;DHT22;28498;54.400;18.566;2024-02-14T08:31:24;5.90;99.90
42365;DHT22;28498;54.400;18.566;2024-02-14T08:33:52;6.00;99.90
42365;DHT22;28498;54.400;18.566;2024-02-14T08:36:21;6.30;99.90
42365;DHT22;28498;54.400;18.566;2024-02-14T08:38:48;6.50;99.90
42365;DHT22;28498;54.400;18.566;2024-02-14T08:41:15;6.50;99.90
42365;DHT22;28498;54.400;18.566;2024-02-14T08:43:42;6.70;99.90
42365;DHT22;28498;54.400;18.566;2024-02-14T08:46:13;6.80;99.90
42365;DHT22;28498;54.400;18.566;2024-02-14T08:48:42;6.80;99.90
42365;DHT22;28498;54.400;18.566;2024-02-14T08:51:15;6.70;99.90
42365;DHT22;28498;54.400;18.566;2024-02-14T08:53:42;6.80;99.90
42365;DHT22;28498;54.400;18.566;2024-02-14T08:56:11;6.80;99.90
42365;DHT22;28498;54.400;18.566;2024-02-14T08:58:38;6.80;99.90
42365;DHT22;28498;54.400;18.566;2024-02-14T09:01:05;7.00;99.90
42365;DHT22;28498;54.400;18.566;2024-02-14T09:03:44;7.20;99.90
42365;DHT22;28498;54.400;18.566;2024-02-14T09:06:17;7.20;99.90
42365;DHT22;28498;54.400;18.566;2024-02-14T09:08:48;7.40;99.90
42365;DHT22;28498;54.400;18.566;2024-02-14T09:11:18;7.50;99.90
42365;DHT22;28498;54.400;18.566;2024-02-14T09:13:45;7.60;99.90
42365;DHT22;28498;54.400;18.566;2024-02-14T09:16:15;7.70;99.90
42365;DHT22;28498;54.400;18.566;2024-02-14T09:18:44;7.80;99.90
42365;DHT22;28498;54.400;18.566;2024-02-14T09:21:12;7.80;99.90
42365;DHT22;28498;54.400;18.566;2024-02-14T09:23:42;7.90;99.90
42365;DHT22;28498;54.400;18.566;2024-02-14T09:26:12;7.90;99.90
42365;DHT22;28498;54.400;18.566;2024-02-14T09:28:42;7.80;99.90
42365;DHT22;28498;54.400;18.566;2024-02-14T09:31:09;7.50;99.90
42365;DHT22;28498;54.400;18.566;2024-02-14T09:33:38;7.60;99.90
42365;DHT22;28498;54.400;18.566;2024-02-14T09:36:06;7.70;99.90
42365;DHT22;28498;54.400;18.566;2024-02-14T09:38:34;7.70;99.90
42365;DHT22;28498;54.400;18.566;2024-02-14T09:41:36;7.70;99.90
42365;DHT22;28498;54.400;18.566;2024-02-14T09:44:03;7.90;99.90
42365;DHT22;28498;54.400;18.566;2024-02-14T09:46:30;8.10;99.90
42365;DHT22;28498;54.400;18.566;2024-02-14T09:48:59;8.10;99.90
42365;DHT22;28498;54.400;18.566;2024-02-14T09:51:28;8.20;99.90
42365;DHT22;28498;54.400;18.566;2024-02-14T09:54:01;8.20;99.90
42365;DHT22;28498;54.400;18.566;2024-02-14T09:56:29;8.40;99.90
42365;DHT22;28498;54.400;18.566;2024-02-14T09:58:58;8.40;99.90
42365;DHT22;28498;54.400;18.566;2024-02-14T10:01:27;8.50;99.90
42365;DHT22;28498;54.400;18.566;2024-02-14T10:03:55;8.50;99.90
42365;DHT22;28498;54.400;18.566;2024-02-14T10:06:22;8.50;99.90
42365;DHT22;28498;54.400;18.566;2024-02-14T10:08:51;8.50;99.90
42365;DHT22;28498;54.400;18.566;2024-02-14T10:11:31;8.60;99.90
42365;DHT22;28498;54.400;18.566;2024-02-14T10:13:59;8.70;99.90
42365;DHT22;28498;54.400;18.566;2024-02-14T10:16:31;8.90;99.90
42365;DHT22;28498;54.400;18.566;2024-02-14T10:18:59;8.80;99.90
42365;DHT22;28498;54.400;18.566;2024-02-14T10:21:27;8.50;99.90
42365;DHT22;28498;54.400;18.566;2024-02-14T10:23:59;8.30;99.90
42365;DHT22;28498;54.400;18.566;2024-02-14T10:26:28;8.30;99.90
42365;DHT22;28498;54.400;18.566;2024-02-14T10:28:57;8.50;99.90
42365;DHT22;28498;54.400;18.566;2024-02-14T10:31:25;8.70;99.90
42365;DHT22;28498;54.400;18.566;2024-02-14T10:33:55;8.90;99.90
42365;DHT22;28498;54.400;18.566;2024-02-14T10:36:23;8.80;99.90
42365;DHT22;28498;54.400;18.566;2024-02-14T10:38:51;8.90;99.90
42365;DHT22;28498;54.400;18.566;2024-02-14T10:41:18;8.90;99.90
42365;DHT22;28498;54.400;18.566;2024-02-14T10:43:45;8.70;99.90
42365;DHT22;28498;54.400;18.566;2024-02-14T10:46:19;8.80;99.90
42365;DHT22;28498;54.400;18.566;2024-02-14T10:48:53;8.90;99.90
42365;DHT22;28498;54.400;18.566;2024-02-14T10:51:22;8.90;99.90
42365;DHT22;28498;54.400;18.566;2024-02-14T10:53:49;8.70;99.90
42365;DHT22;28498;54.400;18.566;2024-02-14T10:56:19;8.90;99.90
42365;DHT22;28498;54.400;18.566;2024-02-14T10:58:47;8.90;99.90
42365;DHT22;28498;54.400;18.566;2024-02-14T11:01:17;8.80;99.90
42365;DHT22;28498;54.400;18.566;2024-02-14T11:03:44;8.60;99.90
42365;DHT22;28498;54.400;18.566;2024-02-14T11:06:18;8.60;99.90
42365;DHT22;28498;54.400;18.566;2024-02-14T11:08:59;8.50;99.90
42365;DHT22;28498;54.400;18.566;2024-02-14T11:11:28;8.60;99.90
42365;DHT22;28498;54.400;18.566;2024-02-14T11:13:57;8.80;99.90
42365;DHT22;28498;54.400;18.566;2024-02-14T11:16:28;8.70;99.90
42365;DHT22;28498;54.400;18.566;2024-02-14T11:19:10;8.70;99.90
42365;DHT22;28498;54.400;18.566;2024-02-14T11:21:42;8.60;99.90
42365;DHT22;28498;54.400;18.566;2024-02-14T11:24:11;8.70;99.90
42365;DHT22;28498;54.400;18.566;2024-02-14T11:26:49;8.80;99.90
42365;DHT22;28498;54.400;18.566;2024-02-14T11:29:20;8.70;99.90
42365;DHT22;28498;54.400;18.566;2024-02-14T11:32:01;8.60;99.90
42365;DHT22;28498;54.400;18.566;2024-02-14T11:34:29;8.50;99.90
42365;DHT22;28498;54.400;18.566;2024-02-14T11:37:04;8.60;99.90
42365;DHT22;28498;54.400;18.566;2024-02-14T11:39:33;8.60;99.90
42365;DHT22;28498;54.400;18.566;2024-02-14T11:42:01;8.60;99.90
42365;DHT22;28498;54.400;18.566;2024-02-14T11:44:28;8.70;99.90
42365;DHT22;28498;54.400;18.566;2024-02-14T11:46:55;8.60;99.90
42365;DHT22;28498;54.400;18.566;2024-02-14T11:49:23;8.60;99.90
42365;DHT22;28498;54.400;18.566;2024-02-14T11:51:51;8.60;99.90
42365;DHT22;28498;54.400;18.566;2024-02-14T11:54:21;8.50;99.90
42365;DHT22;28498;54.400;18.566;2024-02-14T11:56:49;8.60;99.90
42365;DHT22;28498;54.400;18.566;2024-02-14T11:59:16;8.90;99.90
42365;DHT22;28498;54.400;18.566;2024-02-14T12:01:46;8.80;99.90
42365;DHT22;28498;54.400;18.566;2024-02-14T12:04:15;8.70;99.90
42365;DHT22;28498;54.400;18.566;2024-02-14T12:06:43;9.00;99.90
42365;DHT22;28498;54.400;18.566;2024-02-14T12:09:11;9.30;99.90
42365;DHT22;28498;54.400;18.566;2024-02-14T12:11:41;9.20;99.90
42365;DHT22;28498;54.400;18.566;2024-02-14T12:14:10;9.10;99.90
42365;DHT22;28498;54.400;18.566;2024-02-14T12:16:38;9.20;99.90
42365;DHT22;28498;54.400;18.566;2024-02-14T12:19:19;9.10;99.90
42365;DHT22;28498;54.400;18.566;2024-02-14T12:21:47;9.10;99.90
42365;DHT22;28498;54.400;18.566;2024-02-14T12:24:15;9.00;99.90
42365;DHT22;28498;54.400;18.566;2024-02-14T12:26:43;8.90;99.90
42365;DHT22;28498;54.400;18.566;2024-02-14T12:29:13;8.80;99.90
42365;DHT22;28498;54.400;18.566;2024-02-14T12:31:41;8.80;99.90
42365;DHT22;28498;54.400;18.566;2024-02-14T12:34:11;8.70;99.90
42365;DHT22;28498;54.400;18.566;2024-02-14T12:36:39;8.90;99.90
42365;DHT22;28498;54.400;18.566;2024-02-14T12:39:06;9.00;99.90
42365;DHT22;28498;54.400;18.566;2024-02-14T12:41:36;9.00;99.90
42365;DHT22;28498;54.400;18.566;2024-02-14T12:44:07;9.00;99.90
42365;DHT22;28498;54.400;18.566;2024-02-14T12:46:34;9.00;99.90
42365;DHT22;28498;54.400;18.566;2024-02-14T12:49:01;8.90;99.90
42365;DHT22;28498;54.400;18.566;2024-02-14T12:51:28;8.90;99.90
42365;DHT22;28498;54.400;18.566;2024-02-14T12:53:56;8.90;99.90
42365;DHT22;28498;54.400;18.566;2024-02-14T12:56:23;8.90;99.90
42365;DHT22;28498;54.400;18.566;2024-02-14T12:58:51;8.80;99.90
42365;DHT22;28498;54.400;18.566;2024-02-14T13:01:18;8.70;99.90
42365;DHT22;28498;54.400;18.566;2024-02-14T13:03:46;8.80;99.90
42365;DHT22;28498;54.400;18.566;2024-02-14T13:06:13;8.90;99.90
42365;DHT22;28498;54.400;18.566;2024-02-14T13:08:41;9.00;99.90
42365;DHT22;28498;54.400;18.566;2024-02-14T13:11:09;8.90;99.90
42365;DHT22;28498;54.400;18.566;2024-02-14T13:13:36;8.90;99.90
42365;DHT22;28498;54.400;18.566;2024-02-14T13:16:04;8.80;99.90
42365;DHT22;28498;54.400;18.566;2024-02-14T13:18:33;8.80;99.90
42365;DHT22;28498;54.400;18.566;2024-02-14T13:21:02;8.80;99.90
42365;DHT22;28498;54.400;18.566;2024-02-14T13:23:30;8.80;99.90
42365;DHT22;28498;54.400;18.566;2024-02-14T13:25:57;8.80;99.90
42365;DHT22;28498;54.400;18.566;2024-02-14T13:28:25;8.60;99.90
42365;DHT22;28498;54.400;18.566;2024-02-14T13:30:52;8.60;99.90
42365;DHT22;28498;54.400;18.566;2024-02-14T13:33:22;8.50;99.90
42365;DHT22;28498;54.400;18.566;2024-02-14T13:35:50;8.40;99.90
42365;DHT22;28498;54.400;18.566;2024-02-14T13:38:18;8.40;99.90
42365;DHT22;28498;54.400;18.566;2024-02-14T13:40:45;8.40;99.90
42365;DHT22;28498;54.400;18.566;2024-02-14T13:43:12;8.50;99.90
42365;DHT22;28498;54.400;18.566;2024-02-14T13:45:44;8.60;99.90
42365;DHT22;28498;54.400;18.566;2024-02-14T13:48:11;8.50;99.90
42365;DHT22;28498;54.400;18.566;2024-02-14T13:50:39;8.60;99.90
42365;DHT22;28498;54.400;18.566;2024-02-14T13:53:07;8.60;99.90
42365;DHT22;28498;54.400;18.566;2024-02-14T13:55:34;8.60;99.90
42365;DHT22;28498;54.400;18.566;2024-02-14T13:58:01;8.60;99.90
42365;DHT22;28498;54.400;18.566;2024-02-14T14:00:28;8.60;99.90
42365;DHT22;28498;54.400;18.566;2024-02-14T14:02:55;8.30;99.90
42365;DHT22;28498;54.400;18.566;2024-02-14T14:05:23;8.20;99.90
42365;DHT22;28498;54.400;18.566;2024-02-14T14:07:50;8.20;99.90
42365;DHT22;28498;54.400;18.566;2024-02-14T14:10:25;8.20;99.90
42365;DHT22;28498;54.400;18.566;2024-02-14T14:12:54;8.20;99.90
42365;DHT22;28498;54.400;18.566;2024-02-14T14:15:21;8.30;99.90
42365;DHT22;28498;54.400;18.566;2024-02-14T14:17:50;8.20;99.90
42365;DHT22;28498;54.400;18.566;2024-02-14T14:20:18;8.20;99.90
42365;DHT22;28498;54.400;18.566;2024-02-14T14:22:46;8.20;99.90
42365;DHT22;28498;54.400;18.566;2024-02-14T14:25:13;8.20;99.90
42365;DHT22;28498;54.400;18.566;2024-02-14T14:27:41;8.10;99.90
42365;DHT22;28498;54.400;18.566;2024-02-14T14:30:10;8.00;99.90
42365;DHT22;28498;54.400;18.566;2024-02-14T14:32:38;8.00;99.90
42365;DHT22;28498;54.400;18.566;2024-02-14T14:35:07;7.80;99.90
42365;DHT22;28498;54.400;18.566;2024-02-14T14:37:37;7.80;99.90
42365;DHT22;28498;54.400;18.566;2024-02-14T14:40:05;7.70;99.90
42365;DHT22;28498;54.400;18.566;2024-02-14T14:42:35;7.70;99.90
42365;DHT22;28498;54.400;18.566;2024-02-14T14:45:03;7.70;99.90
42365;DHT22;28498;54.400;18.566;2024-02-14T14:47:30;7.70;99.90
42365;DHT22;28498;54.400;18.566;2024-02-14T14:49:58;7.70;99.90
42365;DHT22;28498;54.400;18.566;2024-02-14T14:52:26;7.70;99.90
42365;DHT22;28498;54.400;18.566;2024-02-14T14:54:53;7.60;99.90
42365;DHT22;28498;54.400;18.566;2024-02-14T14:57:20;7.60;99.90
42365;DHT22;28498;54.400;18.566;2024-02-14T14:59:50;7.60;99.90
42365;DHT22;28498;54.400;18.566;2024-02-14T15:02:17;7.50;99.90
42365;DHT22;28498;54.400;18.566;2024-02-14T15:04:44;7.50;99.90
42365;DHT22;28498;54.400;18.566;2024-02-14T15:07:13;7.40;99.90
42365;DHT22;28498;54.400;18.566;2024-02-14T15:09:42;7.40;99.90
42365;DHT22;28498;54.400;18.566;2024-02-14T15:12:09;7.40;99.90
42365;DHT22;28498;54.400;18.566;2024-02-14T15:14:37;7.40;99.90
42365;DHT22;28498;54.400;18.566;2024-02-14T15:17:05;7.30;99.90
42365;DHT22;28498;54.400;18.566;2024-02-14T15:19:32;7.30;99.90
42365;DHT22;28498;54.400;18.566;2024-02-14T15:21:59;7.30;99.90
42365;DHT22;28498;54.400;18.566;2024-02-14T15:24:30;7.30;99.90
42365;DHT22;28498;54.400;18.566;2024-02-14T15:26:57;7.20;99.90
42365;DHT22;28498;54.400;18.566;2024-02-14T15:29:28;7.20;99.90
42365;DHT22;28498;54.400;18.566;2024-02-14T15:32:14;7.10;99.90
42365;DHT22;28498;54.400;18.566;2024-02-14T15:34:59;7.10;99.90
42365;DHT22;28498;54.400;18.566;2024-02-14T15:37:27;7.10;99.90